Terminal Aerodrome Forecast
Issued by NWS Albany, NY

Home | Current Version | Previous Version | Text Only | Print | Product List | Glossary On
Versions: 1 2 3 4 5 6 7 8 9 10 11 12 13 14 15 16 17 18
570
FTUS41 KALY 140537
TAFPOU
TAF
KPOU 140537Z 1406/1506 36009KT P6SM SCT060
     FM141200 31009KT P6SM SKC
     FM141700 33007KT P6SM SKC
     FM150000 33003KT P6SM SKC=

USA.gov is the U.S. government's official web portal to all federal, state and local government web resources and services.